Time;durP1;ratioP1;P1;durP2;ratioP2;P2;SDS_P1;SDS_P2;PMS_P1;PMS_P2;Temp;Humidity;BMP_temperature;BMP_pressure;BME280_temperature;BME280_humidity;BME280_pressure;Samples;Min_cycle;Max_cycle;Signal;HPM_P1;HPM_P2
2021/12/08 00:01:53;;;;;;;6.55;1.85;;;5.00;99.90;;;;;;4166056;28;20049;-63
2021/12/08 00:03:53;;;;;;;5.72;1.90;;;5.10;99.90;;;;;;4166516;28;20043;-62
2021/12/08 00:05:55;;;;;;;9.93;2.28;;;5.10;99.90;;;;;;4165733;28;20064;-63
2021/12/08 00:07:56;;;;;;;5.68;1.83;;;5.10;99.90;;;;;;4166685;28;20030;-62
2021/12/08 00:10:04;;;;;;;7.18;2.33;;;5.10;99.90;;;;;;4166544;28;20125;-63
2021/12/08 00:14:24;;;;;;;7.03;2.60;;;5.10;99.90;;;;;;4166676;28;20471;-62
2021/12/08 00:16:25;;;;;;;6.75;2.00;;;5.10;99.90;;;;;;4166696;28;20048;-62
2021/12/08 00:18:28;;;;;;;6.22;2.10;;;5.10;99.90;;;;;;4164724;28;20120;-62
2021/12/08 00:20:32;;;;;;;7.78;1.92;;;5.20;99.90;;;;;;4173520;28;20037;-63
2021/12/08 00:22:32;;;;;;;6.38;1.88;;;5.20;99.90;;;;;;4165681;28;20038;-62
2021/12/08 00:24:33;;;;;;;7.53;2.13;;;5.20;99.90;;;;;;4169066;28;20086;-62
2021/12/08 00:26:35;;;;;;;5.15;1.70;;;5.20;99.90;;;;;;4181856;28;20469;-63
2021/12/08 00:28:36;;;;;;;5.22;2.33;;;5.20;99.90;;;;;;4165256;28;20121;-63
2021/12/08 00:30:39;;;;;;;5.78;2.03;;;5.30;99.90;;;;;;4182119;28;20428;-63
2021/12/08 00:32:40;;;;;;;4.38;1.75;;;5.30;99.90;;;;;;4182855;28;20033;-63
2021/12/08 00:34:40;;;;;;;6.53;1.77;;;5.30;99.90;;;;;;4182434;28;20471;-63
2021/12/08 00:36:45;;;;;;;4.88;1.65;;;5.30;99.90;;;;;;4169423;28;20048;-62
2021/12/08 00:38:45;;;;;;;5.05;1.50;;;5.30;99.90;;;;;;4168852;28;20087;-63
2021/12/08 00:40:47;;;;;;;3.50;1.35;;;5.30;99.90;;;;;;4165187;28;20104;-63
2021/12/08 00:42:49;;;;;;;5.80;1.88;;;5.40;99.90;;;;;;4166126;28;20033;-62
2021/12/08 00:44:50;;;;;;;7.85;2.05;;;5.40;99.90;;;;;;4164982;28;20424;-63
2021/12/08 00:46:51;;;;;;;7.32;2.00;;;5.40;99.90;;;;;;4164588;28;20033;-63
2021/12/08 00:48:51;;;;;;;6.78;1.73;;;5.40;99.90;;;;;;4166142;28;20029;-62
2021/12/08 00:50:53;;;;;;;3.90;1.65;;;5.40;99.90;;;;;;4165085;28;20029;-64
2021/12/08 00:52:54;;;;;;;5.50;1.90;;;5.40;99.90;;;;;;4164240;28;20055;-63
2021/12/08 00:54:55;;;;;;;5.65;1.70;;;5.40;99.90;;;;;;4170498;28;20360;-62
2021/12/08 00:56:57;;;;;;;7.22;1.70;;;5.40;99.90;;;;;;4162041;28;20491;-63
2021/12/08 00:58:58;;;;;;;3.57;1.67;;;5.50;99.90;;;;;;4167732;28;20122;-63
2021/12/08 01:00:59;;;;;;;7.38;1.92;;;5.50;99.90;;;;;;4170219;28;20055;-62
2021/12/08 01:03:00;;;;;;;6.68;2.00;;;5.50;99.90;;;;;;4171365;28;20067;-62
2021/12/08 01:05:00;;;;;;;6.10;2.13;;;5.50;99.90;;;;;;4170119;28;20038;-63
2021/12/08 01:07:03;;;;;;;2.90;1.60;;;5.50;99.90;;;;;;4165042;28;20046;-63
2021/12/08 01:09:04;;;;;;;8.02;1.88;;;5.60;99.90;;;;;;4166317;28;20041;-62
2021/12/08 01:11:09;;;;;;;5.97;2.08;;;5.60;99.90;;;;;;4164998;28;20137;-63
2021/12/08 01:13:13;;;;;;;4.20;1.88;;;5.60;99.90;;;;;;4164643;28;20091;-63
2021/12/08 01:15:14;;;;;;;3.70;1.40;;;5.60;99.90;;;;;;4163824;28;20540;-63
2021/12/08 01:17:15;;;;;;;6.43;2.08;;;5.60;99.90;;;;;;4165054;28;20033;-63
2021/12/08 01:19:15;;;;;;;2.35;1.30;;;5.60;99.90;;;;;;4164528;28;20475;-63
2021/12/08 01:21:18;;;;;;;3.85;1.52;;;5.60;99.90;;;;;;4162920;28;20108;-63
2021/12/08 01:23:20;;;;;;;4.28;1.70;;;5.60;99.90;;;;;;4168853;28;20033;-63
2021/12/08 01:25:21;;;;;;;3.80;1.48;;;5.70;99.90;;;;;;4163714;28;20025;-62
2021/12/08 01:27:21;;;;;;;6.25;1.95;;;5.70;99.90;;;;;;4164635;28;20087;-63
2021/12/08 01:29:22;;;;;;;3.38;1.70;;;5.70;99.90;;;;;;4163941;28;20061;-63
2021/12/08 01:31:24;;;;;;;9.45;1.85;;;5.70;99.90;;;;;;4166619;28;20171;-63
2021/12/08 01:33:25;;;;;;;7.60;2.13;;;5.70;99.90;;;;;;4164246;28;20037;-63
2021/12/08 01:35:27;;;;;;;2.42;1.55;;;5.70;99.90;;;;;;4166562;28;20037;-63
2021/12/08 01:37:27;;;;;;;4.20;1.95;;;5.70;99.90;;;;;;4164217;28;20458;-63
2021/12/08 01:39:28;;;;;;;10.68;2.20;;;5.70;99.90;;;;;;4163099;28;20025;-63
2021/12/08 01:41:29;;;;;;;2.78;1.30;;;5.80;99.90;;;;;;4170198;28;20025;-63
2021/12/08 01:43:40;;;;;;;5.22;2.00;;;5.80;99.90;;;;;;4164147;28;20040;-62
2021/12/08 01:45:57;;;;;;;4.68;1.70;;;5.80;99.90;;;;;;4165176;28;20017;-63
2021/12/08 01:47:58;;;;;;;4.05;1.48;;;5.80;99.90;;;;;;4166618;28;20053;-63
2021/12/08 01:49:59;;;;;;;5.15;1.73;;;5.80;99.90;;;;;;4168071;28;20540;-63
2021/12/08 01:51:59;;;;;;;2.92;1.33;;;5.90;99.90;;;;;;4158496;28;20060;-63
2021/12/08 01:54:02;;;;;;;2.92;1.40;;;5.90;99.90;;;;;;4170268;28;20104;-63
2021/12/08 01:56:03;;;;;;;3.25;1.27;;;5.90;99.90;;;;;;4165068;28;20041;-63
2021/12/08 01:58:07;;;;;;;5.28;1.52;;;5.90;99.90;;;;;;4166099;28;20460;-63
2021/12/08 02:00:21;;;;;;;4.63;1.38;;;5.90;99.90;;;;;;4167765;28;20033;-64
2021/12/08 02:02:22;;;;;;;3.65;1.60;;;6.00;99.90;;;;;;4165304;28;20108;-63
2021/12/08 02:04:22;;;;;;;3.88;1.65;;;6.00;99.90;;;;;;4165600;28;20037;-63
2021/12/08 02:06:23;;;;;;;2.22;1.27;;;5.90;99.90;;;;;;4169474;28;20492;-63
2021/12/08 02:08:25;;;;;;;2.85;1.60;;;6.00;99.90;;;;;;4168291;28;20109;-63
2021/12/08 02:10:26;;;;;;;5.10;1.55;;;6.00;99.90;;;;;;4161469;28;20038;-63
2021/12/08 02:12:29;;;;;;;4.82;1.42;;;6.00;99.90;;;;;;4165959;28;20106;-63
2021/12/08 02:14:32;;;;;;;5.43;1.42;;;6.00;99.90;;;;;;4165761;28;20045;-63
2021/12/08 02:16:32;;;;;;;2.85;1.13;;;6.10;99.90;;;;;;4166511;28;20112;-63
2021/12/08 02:18:34;;;;;;;5.85;1.65;;;6.10;99.90;;;;;;4164975;28;20364;-63
2021/12/08 02:20:35;;;;;;;1.90;1.20;;;6.10;99.90;;;;;;4166213;28;20069;-63
2021/12/08 02:22:36;;;;;;;4.80;1.17;;;6.10;99.90;;;;;;4168745;28;20036;-63
2021/12/08 02:24:37;;;;;;;3.50;1.30;;;6.10;99.90;;;;;;4166286;28;20037;-63
2021/12/08 02:26:39;;;;;;;3.17;1.15;;;6.10;99.90;;;;;;4165017;28;20042;-63
2021/12/08 02:28:40;;;;;;;4.70;1.02;;;6.20;99.90;;;;;;4166405;28;20117;-63
2021/12/08 02:47:06;;;;;;;2.05;1.00;;;6.20;99.90;;;;;;4152457;28;20457;-63
2021/12/08 02:49:07;;;;;;;1.88;0.80;;;6.30;99.90;;;;;;4170337;28;20279;-63
2021/12/08 02:51:08;;;;;;;3.13;1.08;;;6.30;99.90;;;;;;4158508;28;20092;-63
2021/12/08 02:53:11;;;;;;;2.38;1.08;;;6.30;99.90;;;;;;4166370;28;20033;-63
2021/12/08 02:55:12;;;;;;;2.67;1.63;;;6.30;99.90;;;;;;4165394;28;20431;-64
2021/12/08 02:57:14;;;;;;;2.95;1.10;;;6.30;99.90;;;;;;4166504;28;20037;-63
2021/12/08 02:59:15;;;;;;;2.88;1.10;;;6.30;99.90;;;;;;4166618;28;20038;-63
2021/12/08 03:01:16;;;;;;;2.97;0.95;;;6.40;99.90;;;;;;4167507;28;20033;-63
2021/12/08 03:03:17;;;;;;;2.60;1.13;;;6.40;99.90;;;;;;4166516;28;20138;-63
2021/12/08 03:05:18;;;;;;;1.85;1.00;;;6.40;99.90;;;;;;4165373;28;20038;-63
2021/12/08 03:07:19;;;;;;;1.25;0.77;;;6.40;99.90;;;;;;4172353;28;20033;-63
2021/12/08 03:09:20;;;;;;;3.35;1.20;;;6.50;99.90;;;;;;4165454;28;20142;-63
2021/12/08 03:11:20;;;;;;;4.63;1.30;;;6.40;99.90;;;;;;4162533;28;20080;-63
2021/12/08 03:13:37;;;;;;;1.75;1.00;;;6.40;99.90;;;;;;4169147;28;20034;-63
2021/12/08 03:15:39;;;;;;;1.95;0.90;;;6.50;99.90;;;;;;4165709;28;20032;-63
2021/12/08 03:17:40;;;;;;;3.28;0.80;;;6.50;99.90;;;;;;4169214;28;20037;-63
2021/12/08 03:19:41;;;;;;;2.05;0.80;;;6.50;99.90;;;;;;4155391;28;20087;-63
2021/12/08 03:21:41;;;;;;;2.50;0.90;;;6.50;99.90;;;;;;4173345;28;20026;-63
2021/12/08 03:25:55;;;;;;;1.75;0.98;;;6.60;99.90;;;;;;4168121;28;20039;-63
2021/12/08 03:28:07;;;;;;;0.73;0.65;;;6.60;99.90;;;;;;4171401;28;20083;-63
2021/12/08 03:30:54;;;;;;;1.92;0.80;;;6.60;99.90;;;;;;4166612;28;20036;-63
2021/12/08 03:32:38;;;;;;;1.70;0.75;;;6.60;99.90;;;;;;4165159;28;20044;-63
2021/12/08 03:34:49;;;;;;;2.13;1.20;;;6.60;99.90;;;;;;4170141;28;20378;-63
2021/12/08 03:36:51;;;;;;;1.73;0.90;;;6.70;99.90;;;;;;4155993;28;20391;-63
2021/12/08 03:38:52;;;;;;;2.22;1.02;;;6.70;99.90;;;;;;4172990;28;20365;-63
2021/12/08 03:40:55;;;;;;;2.38;0.90;;;6.70;99.90;;;;;;4171405;28;20083;-63
2021/12/08 03:42:57;;;;;;;1.42;0.98;;;6.70;99.90;;;;;;4168718;28;20033;-63
2021/12/08 03:45:01;;;;;;;4.30;1.00;;;6.70;99.90;;;;;;4171434;28;20029;-63
2021/12/08 03:47:12;;;;;;;1.20;0.90;;;6.70;99.90;;;;;;4165432;28;20836;-63
2021/12/08 03:49:16;;;;;;;1.98;0.90;;;6.70;99.90;;;;;;4168251;28;20502;-63
2021/12/08 03:51:17;;;;;;;1.13;0.90;;;6.70;99.90;;;;;;4175555;28;20075;-63
2021/12/08 03:53:17;;;;;;;2.58;1.00;;;6.70;99.90;;;;;;4172221;28;20613;-63
2021/12/08 03:55:18;;;;;;;2.35;0.93;;;6.70;99.90;;;;;;4170964;28;20037;-63
2021/12/08 03:57:19;;;;;;;3.40;1.17;;;6.70;99.90;;;;;;4161010;28;20077;-63
2021/12/08 03:59:20;;;;;;;2.78;0.98;;;6.70;99.90;;;;;;4174269;28;20034;-63
2021/12/08 04:01:20;;;;;;;1.55;1.00;;;6.70;99.90;;;;;;4167757;28;20021;-63
2021/12/08 04:03:21;;;;;;;1.40;0.70;;;6.70;99.90;;;;;;4169302;28;20056;-63
2021/12/08 04:05:32;;;;;;;1.67;0.82;;;6.70;99.90;;;;;;4160020;28;20481;-63
2021/12/08 04:07:33;;;;;;;0.98;0.88;;;6.60;99.90;;;;;;4172184;28;20033;-63
2021/12/08 04:09:40;;;;;;;1.80;1.20;;;6.60;99.90;;;;;;4170482;28;20032;-63
2021/12/08 04:11:41;;;;;;;2.03;0.95;;;6.60;99.90;;;;;;4167320;28;20042;-63
2021/12/08 04:13:57;;;;;;;2.38;1.02;;;6.60;99.90;;;;;;4159007;28;20038;-64
2021/12/08 04:15:58;;;;;;;3.75;1.33;;;6.60;99.90;;;;;;4167524;28;20033;-63
2021/12/08 04:17:59;;;;;;;1.20;0.82;;;6.60;99.90;;;;;;4168463;28;20116;-63
2021/12/08 04:20:07;;;;;;;1.63;0.95;;;6.60;99.90;;;;;;4168232;28;20022;-63
2021/12/08 04:22:35;;;;;;;2.03;0.95;;;6.60;99.90;;;;;;4166863;28;20091;-63
2021/12/08 04:24:39;;;;;;;2.72;1.00;;;6.60;99.90;;;;;;4156651;28;20403;-63
2021/12/08 04:26:50;;;;;;;3.17;1.05;;;6.60;99.90;;;;;;4167109;28;20205;-63
2021/12/08 04:28:52;;;;;;;1.55;0.82;;;6.60;99.90;;;;;;4170938;28;20041;-63
2021/12/08 04:31:00;;;;;;;1.70;0.98;;;6.60;99.90;;;;;;4171921;28;20029;-63
2021/12/08 04:33:01;;;;;;;4.40;1.10;;;6.60;99.90;;;;;;4160490;28;20080;-63
2021/12/08 04:35:07;;;;;;;3.60;1.50;;;6.60;99.90;;;;;;4174163;28;20108;-63
2021/12/08 04:37:21;;;;;;;4.80;1.48;;;6.60;99.90;;;;;;4171282;28;20395;-63
2021/12/08 04:39:38;;;;;;;6.53;1.67;;;6.60;99.90;;;;;;4158868;28;20567;-63
2021/12/08 04:41:44;;;;;;;4.93;1.55;;;6.60;99.90;;;;;;4166421;28;20034;-63
2021/12/08 04:44:09;;;;;;;7.32;1.10;;;6.60;99.90;;;;;;4174742;28;20041;-63
2021/12/08 04:46:24;;;;;;;3.50;1.10;;;6.70;99.90;;;;;;4169549;28;20044;-63
2021/12/08 04:51:17;;;;;;;2.28;0.82;;;6.70;99.90;;;;;;4170617;28;20033;-63
2021/12/08 05:00:47;;;;;;;5.57;1.58;;;6.80;99.90;;;;;;4171230;28;20035;-63
2021/12/08 05:05:36;;;;;;;6.03;1.67;;;6.80;99.90;;;;;;4166978;28;20029;-64
2021/12/08 05:08:00;;;;;;;5.07;1.17;;;6.80;99.90;;;;;;4173053;28;20040;-63
2021/12/08 05:10:14;;;;;;;6.25;0.88;;;6.80;99.90;;;;;;4165556;28;20124;-63
2021/12/08 05:12:22;;;;;;;4.20;1.10;;;6.80;99.90;;;;;;4166955;28;20438;-63
2021/12/08 05:14:32;;;;;;;4.10;1.40;;;6.90;99.90;;;;;;4171115;28;20045;-63
2021/12/08 05:16:34;;;;;;;4.97;1.45;;;6.80;99.90;;;;;;4154028;28;20468;-63
2021/12/08 05:18:39;;;;;;;7.57;1.42;;;6.80;99.90;;;;;;4167086;28;20034;-63
2021/12/08 05:20:52;;;;;;;3.38;1.33;;;6.80;99.90;;;;;;4166042;28;20072;-63
2021/12/08 05:22:59;;;;;;;4.55;1.50;;;6.70;99.90;;;;;;4170344;28;20399;-63
2021/12/08 05:25:04;;;;;;;6.43;1.75;;;6.70;99.90;;;;;;4166802;28;20025;-63
2021/12/08 05:27:14;;;;;;;5.05;1.40;;;6.80;99.90;;;;;;4166468;28;20094;-63
2021/12/08 05:29:24;;;;;;;6.15;1.40;;;6.70;99.90;;;;;;4166838;28;20044;-63
2021/12/08 05:31:28;;;;;;;6.88;1.55;;;6.70;99.90;;;;;;4160097;28;20171;-63
2021/12/08 05:33:29;;;;;;;6.10;1.75;;;6.80;99.90;;;;;;4166346;28;20034;-63
2021/12/08 05:35:31;;;;;;;8.57;1.90;;;6.70;99.90;;;;;;4173470;28;20402;-63
2021/12/08 05:37:31;;;;;;;6.60;1.50;;;6.70;99.90;;;;;;4163101;28;20087;-64
2021/12/08 05:39:34;;;;;;;3.15;1.13;;;6.70;99.90;;;;;;4166310;28;20475;-63
2021/12/08 05:41:37;;;;;;;3.75;1.27;;;6.70;99.90;;;;;;4166092;28;20521;-62
2021/12/08 05:43:38;;;;;;;3.22;1.42;;;6.70;99.90;;;;;;4166277;28;20110;-62
2021/12/08 05:45:39;;;;;;;4.28;1.73;;;6.70;99.90;;;;;;4165983;28;20029;-62
2021/12/08 05:47:43;;;;;;;3.67;1.10;;;6.70;99.90;;;;;;4169323;28;20036;-62
2021/12/08 05:49:44;;;;;;;4.30;1.38;;;6.70;99.90;;;;;;4159660;28;20046;-63
2021/12/08 05:51:47;;;;;;;5.85;1.42;;;6.70;99.90;;;;;;4166077;28;20092;-63
2021/12/08 05:53:50;;;;;;;3.78;1.60;;;6.70;99.90;;;;;;4154908;28;20534;-62
2021/12/08 05:55:51;;;;;;;3.65;1.45;;;6.70;99.90;;;;;;4168036;28;20123;-63
2021/12/08 05:57:51;;;;;;;6.53;1.98;;;6.60;99.90;;;;;;4166471;28;20037;-63
2021/12/08 05:59:53;;;;;;;5.38;1.50;;;6.70;99.90;;;;;;4168899;28;20064;-62
2021/12/08 06:02:04;;;;;;;5.60;1.80;;;6.70;99.90;;;;;;4159272;28;20049;-63
2021/12/08 06:04:08;;;;;;;4.07;1.50;;;6.60;99.90;;;;;;4168200;28;20354;-62
2021/12/08 06:06:10;;;;;;;6.35;1.83;;;6.60;99.90;;;;;;4166228;28;20040;-62
2021/12/08 06:08:11;;;;;;;4.28;1.40;;;6.60;99.90;;;;;;4167894;28;20041;-62
2021/12/08 06:10:21;;;;;;;8.07;2.05;;;6.60;99.90;;;;;;4171962;28;20165;-63
2021/12/08 06:12:22;;;;;;;6.82;1.67;;;6.60;99.90;;;;;;4163043;28;20074;-62
2021/12/08 06:14:31;;;;;;;4.18;1.80;;;6.60;99.90;;;;;;4165717;28;20030;-63
2021/12/08 06:16:34;;;;;;;4.53;1.30;;;6.60;99.90;;;;;;4170387;28;20099;-63
2021/12/08 06:18:39;;;;;;;4.72;1.50;;;6.60;99.90;;;;;;4164855;28;20128;-62
2021/12/08 06:20:40;;;;;;;5.95;1.50;;;6.50;99.90;;;;;;4168932;28;20028;-63
2021/12/08 06:22:42;;;;;;;10.65;2.50;;;6.50;99.90;;;;;;4161420;28;20105;-62
2021/12/08 06:24:43;;;;;;;15.85;3.08;;;6.60;99.90;;;;;;4166238;28;20145;-62
2021/12/08 06:26:44;;;;;;;9.48;2.50;;;6.60;99.90;;;;;;4167536;28;20037;-62
2021/12/08 06:28:45;;;;;;;5.20;2.35;;;6.60;99.90;;;;;;4167573;28;20053;-63
2021/12/08 06:30:47;;;;;;;10.18;2.40;;;6.60;99.90;;;;;;4171639;28;20033;-63
2021/12/08 06:32:49;;;;;;;3.75;1.48;;;6.60;99.90;;;;;;4161590;28;20041;-63
2021/12/08 06:34:54;;;;;;;5.95;1.55;;;6.60;99.90;;;;;;4166250;28;20033;-63
2021/12/08 06:37:00;;;;;;;6.65;1.80;;;6.60;99.90;;;;;;4165405;28;20044;-62
2021/12/08 06:39:03;;;;;;;6.53;1.88;;;6.60;99.90;;;;;;4166070;28;20480;-63
2021/12/08 06:41:13;;;;;;;6.57;1.95;;;6.50;99.90;;;;;;4165034;28;20025;-62
2021/12/08 06:43:18;;;;;;;7.75;1.83;;;6.50;99.90;;;;;;4166192;28;20029;-62
2021/12/08 06:45:23;;;;;;;6.68;2.00;;;6.50;99.90;;;;;;4172525;28;20440;-63
2021/12/08 06:47:27;;;;;;;6.40;1.92;;;6.50;99.90;;;;;;4168396;28;20060;-63
2021/12/08 06:49:28;;;;;;;8.50;2.10;;;6.50;99.90;;;;;;4163632;28;20037;-62
2021/12/08 06:51:41;;;;;;;6.40;2.38;;;6.50;99.90;;;;;;4168266;28;20109;-63
2021/12/08 06:53:47;;;;;;;8.90;2.40;;;6.50;99.90;;;;;;4166106;28;20120;-63
2021/12/08 06:55:54;;;;;;;8.77;2.85;;;6.40;99.90;;;;;;4171147;28;20094;-63
2021/12/08 06:58:06;;;;;;;15.13;3.78;;;6.40;99.90;;;;;;4163906;28;20022;-63
2021/12/08 07:00:18;;;;;;;8.10;2.80;;;6.50;99.90;;;;;;4168823;28;20036;-63
2021/12/08 07:02:37;;;;;;;9.50;2.90;;;6.50;99.90;;;;;;4169105;28;20446;-63
2021/12/08 07:04:57;;;;;;;7.85;2.30;;;6.50;99.90;;;;;;4172450;28;20056;-63
2021/12/08 07:07:17;;;;;;;6.90;2.65;;;6.50;99.90;;;;;;4152645;28;20049;-63
2021/12/08 07:09:26;;;;;;;10.98;3.05;;;6.50;99.90;;;;;;4165893;28;20044;-62
2021/12/08 07:11:28;;;;;;;8.88;2.10;;;6.50;99.90;;;;;;4170406;28;20031;-63
2021/12/08 07:13:33;;;;;;;5.43;2.00;;;6.50;99.90;;;;;;4167995;28;20087;-62
2021/12/08 07:15:41;;;;;;;8.20;2.17;;;6.50;99.90;;;;;;4169023;28;20120;-62
2021/12/08 07:17:46;;;;;;;8.35;2.83;;;6.50;99.90;;;;;;4175998;28;20040;-62
2021/12/08 07:20:02;;;;;;;6.95;2.28;;;6.50;99.90;;;;;;4168092;28;20036;-62
2021/12/08 07:22:06;;;;;;;8.30;2.10;;;6.50;99.90;;;;;;4165179;28;20156;-62
2021/12/08 07:24:16;;;;;;;8.93;2.22;;;6.50;99.90;;;;;;4169217;28;20042;-62
2021/12/08 07:26:20;;;;;;;8.90;2.03;;;6.50;99.90;;;;;;4174699;28;20085;-62
2021/12/08 07:28:26;;;;;;;6.38;1.77;;;6.50;99.90;;;;;;4172003;28;20033;-62
2021/12/08 07:30:34;;;;;;;10.60;2.17;;;6.50;99.90;;;;;;4168013;28;20406;-62
2021/12/08 07:32:37;;;;;;;3.78;1.50;;;6.50;99.90;;;;;;4168689;28;20037;-62
2021/12/08 07:34:38;;;;;;;7.20;1.90;;;6.50;99.90;;;;;;4171065;28;20036;-62
2021/12/08 07:36:43;;;;;;;3.58;1.27;;;6.50;99.90;;;;;;4167779;28;20075;-62
2021/12/08 07:38:46;;;;;;;9.52;2.22;;;6.50;99.90;;;;;;4169272;28;20520;-62
2021/12/08 07:41:08;;;;;;;7.32;1.77;;;6.50;99.90;;;;;;4167803;28;20057;-62
2021/12/08 07:43:14;;;;;;;4.47;1.73;;;6.50;99.90;;;;;;4173149;28;20059;-62
2021/12/08 07:45:23;;;;;;;6.38;1.80;;;6.50;99.90;;;;;;4162156;28;20030;-62
2021/12/08 07:47:26;;;;;;;6.80;1.50;;;6.50;99.90;;;;;;4171303;28;20040;-62
2021/12/08 07:49:30;;;;;;;;;;;6.50;99.90;;;;;;4168513;28;20178;-62
2021/12/08 07:51:40;;;;;;;5.38;1.67;;;6.50;99.90;;;;;;4166455;28;19909;-62
2021/12/08 07:53:41;;;;;;;3.67;1.20;;;6.50;99.90;;;;;;4165248;28;20049;-62
2021/12/08 07:55:46;;;;;;;4.28;1.50;;;6.50;99.90;;;;;;4167643;28;20025;-62
2021/12/08 07:57:47;;;;;;;4.18;1.58;;;6.50;99.90;;;;;;4168147;28;20467;-62
2021/12/08 07:59:51;;;;;;;5.68;1.77;;;6.50;99.90;;;;;;4167905;28;20422;-62
2021/12/08 08:01:56;;;;;;;6.95;1.85;;;6.50;99.90;;;;;;4167059;28;20442;-62
2021/12/08 08:03:58;;;;;;;7.93;2.05;;;6.60;99.90;;;;;;4168557;28;20391;-62
2021/12/08 08:06:02;;;;;;;8.23;1.73;;;6.60;99.90;;;;;;4163015;28;20069;-62
2021/12/08 08:08:06;;;;;;;5.15;1.63;;;6.50;99.90;;;;;;4168291;28;20312;-62
2021/12/08 08:10:13;;;;;;;6.18;1.83;;;6.50;99.90;;;;;;4167951;28;20030;-62
2021/12/08 08:12:19;;;;;;;5.15;1.55;;;6.50;99.90;;;;;;4152740;28;20618;-62
2021/12/08 08:14:20;;;;;;;5.70;1.73;;;6.50;99.90;;;;;;4168214;28;20034;-62
2021/12/08 08:16:24;;;;;;;6.28;1.77;;;6.50;99.90;;;;;;4166857;28;20038;-62
2021/12/08 08:18:28;;;;;;;8.85;1.73;;;6.50;99.90;;;;;;4167742;28;20042;-62
2021/12/08 08:20:34;;;;;;;4.90;1.98;;;6.50;99.90;;;;;;4166913;28;20033;-62
2021/12/08 08:22:34;;;;;;;8.05;1.92;;;6.50;99.90;;;;;;4172492;28;20034;-62
2021/12/08 08:24:36;;;;;;;3.90;1.33;;;6.50;99.90;;;;;;4166651;28;20087;-62
2021/12/08 08:26:39;;;;;;;7.78;1.80;;;6.50;99.90;;;;;;4163282;28;20416;-62
2021/12/08 08:28:41;;;;;;;;;;;6.50;99.90;;;;;;4168773;28;20032;-62
2021/12/08 08:30:54;;;;;;;7.83;1.63;;;6.50;99.90;;;;;;4173535;28;19919;-62
2021/12/08 08:32:58;;;;;;;9.48;1.55;;;6.50;99.90;;;;;;4168020;28;20115;-62
2021/12/08 08:35:30;;;;;;;4.55;1.83;;;6.50;99.90;;;;;;4169646;28;20521;-62
2021/12/08 08:37:31;;;;;;;9.10;1.98;;;6.50;99.90;;;;;;4136568;28;20127;-63
2021/12/08 08:39:34;;;;;;;9.25;2.30;;;6.50;99.90;;;;;;4167365;28;20392;-62
2021/12/08 08:41:40;;;;;;;;;;;6.50;99.90;;;;;;4165328;28;20084;-62
2021/12/08 08:43:41;;;;;;;12.15;2.33;;;6.50;99.90;;;;;;4168255;28;19909;-62
2021/12/08 08:45:52;;;;;;;12.52;2.03;;;6.50;99.90;;;;;;4174524;28;20045;-63
2021/12/08 08:48:12;;;;;;;7.93;2.03;;;6.50;99.90;;;;;;4162590;28;20030;-62
2021/12/08 08:50:19;;;;;;;7.90;1.95;;;6.50;99.90;;;;;;4155481;28;20034;-64
2021/12/08 08:52:34;;;;;;;4.97;1.70;;;6.50;99.90;;;;;;4167007;28;20045;-62
2021/12/08 08:54:39;;;;;;;5.75;1.48;;;6.50;99.90;;;;;;4167282;28;20033;-62
2021/12/08 08:56:45;;;;;;;4.30;1.77;;;6.60;99.90;;;;;;4166751;28;20048;-62
2021/12/08 08:58:51;;;;;;;7.95;2.13;;;6.50;99.90;;;;;;4166473;28;20068;-62
2021/12/08 09:01:47;;;;;;;7.30;1.80;;;6.60;99.90;;;;;;4164819;28;20025;-62
2021/12/08 09:03:53;;;;;;;5.28;1.73;;;6.60;99.90;;;;;;4161354;28;20128;-62
2021/12/08 09:06:15;;;;;;;4.35;1.75;;;6.60;99.90;;;;;;4173539;28;20079;-62
2021/12/08 09:08:17;;;;;;;6.63;1.50;;;6.60;99.90;;;;;;4166642;28;20040;-62
2021/12/08 09:10:35;;;;;;;5.88;1.85;;;6.70;99.90;;;;;;4166546;28;20171;-62
2021/12/08 09:12:58;;;;;;;5.05;1.70;;;6.60;99.90;;;;;;4173625;28;20065;-62
2021/12/08 09:15:08;;;;;;;6.15;1.50;;;6.60;99.90;;;;;;4165753;28;20119;-62
2021/12/08 09:17:21;;;;;;;3.20;1.27;;;6.70;99.90;;;;;;4166228;28;20463;-62
2021/12/08 09:19:34;;;;;;;9.63;2.65;;;6.70;99.90;;;;;;4168224;28;20438;-62
2021/12/08 09:21:42;;;;;;;12.70;2.05;;;6.70;99.90;;;;;;4169848;28;20547;-62
2021/12/08 09:23:55;;;;;;;6.07;1.98;;;6.70;99.90;;;;;;4165903;28;20036;-62
2021/12/08 09:26:10;;;;;;;6.00;1.88;;;6.80;99.90;;;;;;4166623;28;20036;-62
2021/12/08 09:28:18;;;;;;;9.65;2.67;;;6.80;99.90;;;;;;4166932;28;20070;-62
2021/12/08 09:30:21;;;;;;;8.48;2.65;;;6.80;99.90;;;;;;4154117;28;20038;-63
2021/12/08 09:32:35;;;;;;;11.77;2.88;;;6.80;99.90;;;;;;4151764;28;20057;-62
2021/12/08 09:34:40;;;;;;;11.05;2.72;;;6.80;99.90;;;;;;4169808;28;20044;-62
2021/12/08 09:36:48;;;;;;;10.73;2.78;;;6.80;99.90;;;;;;4166606;28;20091;-62
2021/12/08 09:38:54;;;;;;;9.40;2.65;;;6.80;99.90;;;;;;4167019;28;20038;-62
2021/12/08 09:41:03;;;;;;;12.98;3.33;;;6.80;99.90;;;;;;4164931;28;20030;-62
2021/12/08 09:43:09;;;;;;;14.00;3.20;;;6.80;99.90;;;;;;4170797;28;20029;-62
2021/12/08 09:45:18;;;;;;;8.88;3.15;;;6.80;99.90;;;;;;4164334;28;20033;-64
2021/12/08 09:47:20;;;;;;;12.32;3.20;;;6.80;99.90;;;;;;4166693;28;20025;-62
2021/12/08 09:49:24;;;;;;;9.40;3.00;;;6.80;99.90;;;;;;4161377;28;20038;-62
2021/12/08 09:51:26;;;;;;;9.00;2.70;;;6.90;99.90;;;;;;4172543;28;20388;-62
2021/12/08 09:53:27;;;;;;;9.45;3.08;;;6.80;99.90;;;;;;4169665;28;20037;-62
2021/12/08 09:55:28;;;;;;;11.88;2.75;;;6.80;99.90;;;;;;4166319;28;20039;-63
2021/12/08 09:57:29;;;;;;;7.50;2.22;;;6.80;99.90;;;;;;4137267;28;20046;-63
2021/12/08 09:59:32;;;;;;;10.13;2.35;;;6.90;99.90;;;;;;4169751;28;20104;-62
2021/12/08 10:01:37;;;;;;;5.82;1.73;;;6.90;99.90;;;;;;4158470;28;20100;-63
2021/12/08 10:03:37;;;;;;;6.22;1.45;;;6.90;99.90;;;;;;4164560;28;20040;-62
2021/12/08 10:05:39;;;;;;;4.95;2.33;;;7.00;99.90;;;;;;4173550;28;20484;-62
2021/12/08 10:07:42;;;;;;;11.38;2.53;;;7.00;99.90;;;;;;4166784;28;20034;-63
2021/12/08 10:09:43;;;;;;;10.07;2.63;;;6.90;99.90;;;;;;4170557;28;20026;-62
2021/12/08 10:11:44;;;;;;;7.53;2.17;;;7.00;99.90;;;;;;4162814;28;20356;-62
2021/12/08 10:13:45;;;;;;;8.77;2.17;;;7.00;99.90;;;;;;4165466;28;20032;-62
2021/12/08 10:15:46;;;;;;;8.73;2.80;;;7.00;99.90;;;;;;4166067;28;20475;-63
2021/12/08 10:17:47;;;;;;;9.38;2.45;;;7.00;99.90;;;;;;4170326;28;20029;-63
2021/12/08 10:20:08;;;;;;;6.57;2.30;;;7.00;99.90;;;;;;4162165;28;20034;-63
2021/12/08 10:22:19;;;;;;;6.80;1.77;;;7.00;99.90;;;;;;4172233;28;20295;-63
2021/12/08 10:24:27;;;;;;;8.70;2.25;;;7.10;99.90;;;;;;4172076;28;20083;-63
2021/12/08 10:26:33;;;;;;;9.20;2.03;;;7.00;99.90;;;;;;4149489;28;20034;-63
2021/12/08 10:28:35;;;;;;;11.07;2.33;;;7.10;99.90;;;;;;4170023;28;20032;-62
2021/12/08 10:30:47;;;;;;;6.07;1.63;;;7.10;99.90;;;;;;4174898;28;20476;-63
2021/12/08 10:32:49;;;;;;;6.40;1.88;;;7.00;99.90;;;;;;4172935;28;20167;-63
2021/12/08 10:35:04;;;;;;;7.15;1.55;;;7.10;99.90;;;;;;4171006;28;20040;-63
2021/12/08 10:37:06;;;;;;;12.50;1.75;;;7.00;99.90;;;;;;4157995;28;20397;-63
2021/12/08 10:39:15;;;;;;;7.57;1.83;;;7.00;99.90;;;;;;4169532;28;20030;-62
2021/12/08 10:41:16;;;;;;;6.50;1.92;;;7.00;99.90;;;;;;4170533;28;20045;-62
2021/12/08 10:43:17;;;;;;;9.55;2.05;;;7.10;99.90;;;;;;4169500;28;20125;-63
2021/12/08 10:45:23;;;;;;;7.18;2.00;;;7.10;99.90;;;;;;4167916;28;20033;-63
2021/12/08 10:47:31;;;;;;;6.30;1.75;;;7.10;99.90;;;;;;4177429;28;20032;-63
2021/12/08 10:54:30;;;;;;;9.05;2.25;;;7.10;99.90;;;;;;4168827;28;20029;-62
2021/12/08 10:56:38;;;;;;;4.90;1.58;;;7.10;99.90;;;;;;4168476;28;20029;-63
2021/12/08 10:58:49;;;;;;;4.68;1.75;;;7.10;99.90;;;;;;4172088;28;20464;-63
2021/12/08 11:00:50;;;;;;;6.07;1.48;;;7.20;99.90;;;;;;4163424;28;20044;-63
2021/12/08 11:02:57;;;;;;;8.55;1.40;;;7.20;99.90;;;;;;4168901;28;20060;-63
2021/12/08 11:04:57;;;;;;;6.78;1.85;;;7.20;99.90;;;;;;4172656;28;20034;-61
2021/12/08 11:07:08;;;;;;;6.35;1.90;;;7.20;99.90;;;;;;4164057;28;20051;-63
2021/12/08 11:09:19;;;;;;;7.78;1.83;;;7.20;99.90;;;;;;4171664;28;20041;-63
2021/12/08 11:11:28;;;;;;;7.65;1.55;;;7.20;99.90;;;;;;4167310;28;20030;-63
2021/12/08 11:13:45;;;;;;;4.68;1.60;;;7.20;99.90;;;;;;4168757;28;20057;-63
2021/12/08 11:15:47;;;;;;;7.22;1.55;;;7.20;99.90;;;;;;4172911;28;20083;-63
2021/12/08 11:17:48;;;;;;;5.68;1.80;;;7.30;99.90;;;;;;4164149;28;20037;-63
2021/12/08 11:19:48;;;;;;;6.80;1.75;;;7.30;99.90;;;;;;4180724;28;20498;-63
2021/12/08 11:21:54;;;;;;;8.32;2.63;;;7.30;99.90;;;;;;4168063;28;20041;-63
2021/12/08 11:24:00;;;;;;;10.88;2.45;;;7.30;99.90;;;;;;4169505;28;20037;-63
2021/12/08 11:26:04;;;;;;;5.47;2.13;;;7.30;99.90;;;;;;4153055;28;20038;-62
2021/12/08 11:28:37;;;;;;;6.93;2.13;;;7.30;99.90;;;;;;4173077;28;20048;-62
2021/12/08 11:30:38;;;;;;;;;;;7.30;99.90;;;;;;4116796;28;20496;-63
2021/12/08 11:32:38;;;;;;;6.43;1.77;;;7.30;99.90;;;;;;4153615;28;19915;-62
2021/12/08 11:34:41;;;;;;;9.70;2.08;;;7.40;99.90;;;;;;4173552;28;20029;-63
2021/12/08 11:36:42;;;;;;;6.45;1.60;;;7.30;99.90;;;;;;4167793;28;20155;-62
2021/12/08 11:38:45;;;;;;;5.95;1.83;;;7.30;99.90;;;;;;4171227;28;20064;-62
2021/12/08 11:40:46;;;;;;;4.80;1.63;;;7.40;99.90;;;;;;4171834;28;20414;-62